Time;durP1;ratioP1;P1;durP2;ratioP2;P2;SDS_P1;SDS_P2;PMS_P1;PMS_P2;Temp;Humidity;BMP_temperature;BMP_pressure;BME280_temperature;BME280_humidity;BME280_pressure;Samples;Min_cycle;Max_cycle;Signal;HPM_P1;HPM_P2
2021/12/23 00:01:19;;;;;;;44.05;18.00;;;-2.60;99.90;;;;;;5032279;28;20066;-58
2021/12/23 00:03:45;;;;;;;39.33;16.02;;;-2.50;99.90;;;;;;5032814;28;20025;-56
2021/12/23 00:06:10;;;;;;;44.15;17.80;;;-2.40;99.90;;;;;;5032047;28;20112;-58
2021/12/23 00:08:36;;;;;;;41.45;17.38;;;-2.40;99.90;;;;;;5031900;28;20506;-56
2021/12/23 00:11:02;;;;;;;42.85;17.35;;;-2.40;99.90;;;;;;5031777;28;20021;-56
2021/12/23 00:13:27;;;;;;;49.05;19.60;;;-2.50;99.90;;;;;;5032901;28;20416;-56
2021/12/23 00:23:42;;;;;;;43.00;17.42;;;-2.40;99.90;;;;;;5033256;28;20041;-56
2021/12/23 00:26:08;;;;;;;45.85;16.60;;;-2.50;99.90;;;;;;5032846;28;20404;-58
2021/12/23 00:28:33;;;;;;;38.70;18.48;;;-2.40;99.90;;;;;;5031709;28;20018;-58
2021/12/23 00:31:00;;;;;;;42.72;17.02;;;-2.30;99.90;;;;;;5031828;28;20032;-57
2021/12/23 00:33:28;;;;;;;45.13;17.08;;;-2.20;99.90;;;;;;5031480;28;20076;-55
2021/12/23 00:35:55;;;;;;;38.65;16.35;;;-2.20;99.90;;;;;;5031626;28;20018;-54
2021/12/23 00:38:32;;;;;;;41.63;15.70;;;-2.10;99.90;;;;;;5031564;28;20021;-57
2021/12/23 00:41:00;;;;;;;38.90;16.02;;;-2.20;99.90;;;;;;5035864;28;20027;-56
2021/12/23 00:43:26;;;;;;;39.13;15.85;;;-2.20;99.90;;;;;;5035271;28;20037;-56
2021/12/23 00:45:51;;;;;;;39.80;15.95;;;-2.30;99.90;;;;;;5037143;28;20080;-57
2021/12/23 00:48:18;;;;;;;39.20;15.63;;;-2.30;99.90;;;;;;5035538;28;20025;-58
2021/12/23 00:50:44;;;;;;;37.03;15.65;;;-2.30;99.90;;;;;;5036149;28;20038;-58
2021/12/23 00:53:12;;;;;;;36.90;15.52;;;-2.30;99.90;;;;;;5034994;28;20067;-57
2021/12/23 00:55:38;;;;;;;39.30;15.43;;;-2.30;99.90;;;;;;5035274;28;20022;-56
2021/12/23 00:58:04;;;;;;;36.60;15.40;;;-2.30;99.90;;;;;;5036881;28;20032;-56
2021/12/23 01:00:30;;;;;;;32.08;13.73;;;-2.20;99.90;;;;;;5035044;28;20105;-57
2021/12/23 01:02:58;;;;;;;38.80;14.32;;;-2.10;99.90;;;;;;5036364;28;20040;-57
2021/12/23 01:05:26;;;;;;;29.65;12.95;;;-1.90;99.90;;;;;;5036165;28;20028;-58
2021/12/23 01:07:51;;;;;;;29.55;12.85;;;-1.70;99.90;;;;;;5036320;28;20030;-58
2021/12/23 01:10:17;;;;;;;31.95;12.70;;;-1.50;99.90;;;;;;5035972;28;20025;-57
2021/12/23 01:12:48;;;;;;;31.10;12.00;;;-1.40;99.90;;;;;;5035918;28;20018;-57
2021/12/23 01:15:40;;;;;;;30.02;12.65;;;-1.40;99.90;;;;;;5035782;28;20369;-57
2021/12/23 01:18:18;;;;;;;28.90;12.93;;;-1.30;99.90;;;;;;5035965;28;20021;-58
2021/12/23 01:20:52;;;;;;;33.92;12.77;;;-1.30;99.90;;;;;;5035934;28;20113;-57
2021/12/23 01:23:22;;;;;;;31.02;12.35;;;-1.10;99.90;;;;;;5034534;28;20033;-58
2021/12/23 01:25:50;;;;;;;25.30;12.60;;;-1.10;99.90;;;;;;5034531;28;20547;-57
2021/12/23 01:28:16;;;;;;;31.38;12.13;;;-1.20;99.90;;;;;;5036027;28;20108;-58
2021/12/23 01:30:42;;;;;;;34.40;13.20;;;-1.20;99.90;;;;;;5036348;28;20032;-57
2021/12/23 01:33:08;;;;;;;28.75;11.07;;;-1.20;99.90;;;;;;5035961;28;20021;-56
2021/12/23 01:35:36;;;;;;;28.75;12.30;;;-1.20;99.90;;;;;;5035570;28;20028;-57
2021/12/23 01:38:02;;;;;;;27.75;11.30;;;-1.10;99.90;;;;;;5034219;28;20464;-54
2021/12/23 01:40:29;;;;;;;30.70;14.43;;;-0.90;99.90;;;;;;5034336;28;20120;-53
2021/12/23 01:42:55;;;;;;;35.60;14.35;;;-1.00;99.90;;;;;;5035803;28;20096;-58
2021/12/23 01:45:26;;;;;;;31.98;13.75;;;-1.10;99.90;;;;;;5034087;28;20021;-58
2021/12/23 01:47:52;;;;;;;38.65;13.80;;;-1.20;99.90;;;;;;5035569;28;20068;-57
2021/12/23 01:50:20;;;;;;;40.58;14.25;;;-1.20;99.90;;;;;;5035114;28;20069;-58
2021/12/23 01:52:46;;;;;;;29.95;13.00;;;-1.30;99.90;;;;;;5035123;28;20029;-58
2021/12/23 01:55:12;;;;;;;33.13;12.20;;;-1.40;99.90;;;;;;5035197;28;20026;-57
2021/12/23 01:57:40;;;;;;;34.78;13.75;;;-1.40;99.90;;;;;;5035163;28;20025;-57
2021/12/23 02:00:15;;;;;;;30.42;12.73;;;-1.40;99.90;;;;;;5035118;28;20030;-57
2021/12/23 02:02:41;;;;;;;34.90;14.63;;;-1.30;99.90;;;;;;5035191;28;20029;-56
2021/12/23 02:05:08;;;;;;;33.50;14.32;;;-1.40;99.90;;;;;;5034945;28;20033;-56
2021/12/23 02:07:35;;;;;;;31.65;13.50;;;-1.40;99.90;;;;;;5034950;28;20029;-58
2021/12/23 02:10:01;;;;;;;36.67;13.98;;;-1.40;99.90;;;;;;5034041;28;20052;-58
2021/12/23 02:12:28;;;;;;;28.30;13.32;;;-1.40;99.90;;;;;;5035142;28;20027;-56
2021/12/23 02:14:53;;;;;;;32.50;13.13;;;-1.40;99.90;;;;;;5035335;28;20026;-57
2021/12/23 02:17:19;;;;;;;34.25;13.50;;;-1.30;99.90;;;;;;5033710;28;20071;-58
2021/12/23 02:19:44;;;;;;;30.17;13.27;;;-1.20;99.90;;;;;;5035003;28;20067;-54
2021/12/23 02:22:10;;;;;;;29.60;13.05;;;-1.20;99.90;;;;;;5034059;28;20028;-54
2021/12/23 02:24:37;;;;;;;28.65;13.57;;;-1.20;99.90;;;;;;5035283;28;20111;-56
2021/12/23 02:27:03;;;;;;;31.40;13.95;;;-1.40;99.90;;;;;;5034533;28;20032;-56
2021/12/23 02:29:28;;;;;;;30.13;12.90;;;-1.40;99.90;;;;;;5034422;28;20025;-57
2021/12/23 02:31:54;;;;;;;33.63;14.07;;;-1.50;99.90;;;;;;5034801;28;20021;-56
2021/12/23 02:34:21;;;;;;;33.47;13.02;;;-1.50;99.90;;;;;;5034567;28;20021;-56
2021/12/23 02:37:06;;;;;;;30.88;14.02;;;-1.50;99.90;;;;;;5033012;28;20060;-56
2021/12/23 02:39:32;;;;;;;34.42;14.02;;;-1.50;99.90;;;;;;5034377;28;20027;-58
2021/12/23 02:41:58;;;;;;;36.17;14.23;;;-1.60;99.90;;;;;;5034319;28;20451;-55
2021/12/23 02:44:23;;;;;;;38.90;15.02;;;-1.60;99.90;;;;;;5033022;28;20114;-53
2021/12/23 02:46:49;;;;;;;41.28;14.80;;;-1.60;99.90;;;;;;5033455;28;20060;-57
2021/12/23 02:49:15;;;;;;;33.38;14.20;;;-1.50;99.90;;;;;;5033765;28;20134;-58
2021/12/23 02:51:42;;;;;;;34.70;14.18;;;-1.30;99.90;;;;;;5033274;28;20036;-56
2021/12/23 02:54:07;;;;;;;38.20;14.90;;;-1.20;99.90;;;;;;5032821;28;20021;-56
2021/12/23 02:56:33;;;;;;;32.83;13.18;;;-1.30;99.90;;;;;;5032768;28;20017;-54
2021/12/23 02:59:00;;;;;;;36.92;14.65;;;-1.10;99.90;;;;;;5032752;28;20025;-56
2021/12/23 03:01:26;;;;;;;36.33;14.27;;;-1.00;99.90;;;;;;5033976;28;20028;-56
2021/12/23 03:03:52;;;;;;;41.28;15.52;;;-1.20;99.90;;;;;;5033444;28;20550;-56
2021/12/23 03:06:19;;;;;;;36.58;13.95;;;-1.40;99.90;;;;;;5032568;28;20484;-53
2021/12/23 03:08:56;;;;;;;36.33;14.23;;;-1.40;99.90;;;;;;5034086;28;20021;-54
2021/12/23 03:11:24;;;;;;;30.30;13.30;;;-1.20;99.90;;;;;;5032524;28;20021;-56
2021/12/23 03:13:51;;;;;;;35.03;15.35;;;-1.20;99.90;;;;;;5033740;28;20021;-58
2021/12/23 03:16:22;;;;;;;31.48;14.30;;;-1.20;99.90;;;;;;5032408;28;20018;-58
2021/12/23 03:18:48;;;;;;;35.47;15.73;;;-1.20;99.90;;;;;;5032526;28;20021;-55
2021/12/23 03:21:14;;;;;;;33.53;14.70;;;-1.10;99.90;;;;;;5032973;28;20064;-56
2021/12/23 03:23:40;;;;;;;34.55;13.77;;;-1.20;99.90;;;;;;5032811;28;20064;-57
2021/12/23 03:26:07;;;;;;;42.13;15.38;;;-1.10;99.90;;;;;;5032278;28;20395;-55
2021/12/23 03:28:33;;;;;;;32.13;14.00;;;-1.20;99.90;;;;;;5033560;28;20051;-58
2021/12/23 03:30:59;;;;;;;36.83;15.80;;;-1.10;99.90;;;;;;5032131;28;20025;-55
2021/12/23 03:33:26;;;;;;;33.35;15.00;;;-1.20;99.90;;;;;;5033623;28;20017;-56
2021/12/23 03:35:52;;;;;;;36.70;14.55;;;-1.10;99.90;;;;;;5033421;28;20614;-56
2021/12/23 03:38:18;;;;;;;34.22;15.07;;;-1.10;99.90;;;;;;5033808;28;20100;-53
2021/12/23 03:40:44;;;;;;;37.67;15.32;;;-0.90;99.90;;;;;;5032614;28;20025;-58
2021/12/23 03:43:12;;;;;;;33.55;13.90;;;-1.10;99.90;;;;;;5031961;28;20395;-56
2021/12/23 03:45:38;;;;;;;37.53;14.30;;;-0.90;99.90;;;;;;5033854;28;20353;-58
2021/12/23 03:48:04;;;;;;;30.63;13.65;;;-0.90;99.90;;;;;;5033431;28;20056;-55
2021/12/23 03:50:30;;;;;;;32.83;14.18;;;-0.70;99.90;;;;;;5033851;28;20025;-58
2021/12/23 03:52:56;;;;;;;36.30;14.45;;;-0.50;99.90;;;;;;5032010;28;20029;-58
2021/12/23 03:55:23;;;;;;;34.97;13.82;;;-0.60;99.90;;;;;;5033253;28;20017;-58
2021/12/23 03:57:48;;;;;;;38.17;15.68;;;-0.60;99.90;;;;;;5033554;28;20029;-58
2021/12/23 04:00:28;;;;;;;41.33;15.15;;;-0.40;99.90;;;;;;5031948;28;20029;-56
2021/12/23 04:02:54;;;;;;;32.78;14.80;;;-0.50;99.90;;;;;;5032555;28;20388;-57
2021/12/23 04:05:21;;;;;;;32.83;14.68;;;-0.60;99.90;;;;;;5033708;28;20029;-57
2021/12/23 04:07:46;;;;;;;36.42;14.43;;;-0.50;99.90;;;;;;5033691;28;20047;-58
2021/12/23 04:10:16;;;;;;;36.85;15.27;;;-0.40;99.90;;;;;;5031813;28;20112;-58
2021/12/23 04:12:43;;;;;;;32.72;14.70;;;-0.30;99.90;;;;;;5033076;28;20075;-58
2021/12/23 04:15:09;;;;;;;34.78;14.07;;;-0.30;99.90;;;;;;5033943;28;20033;-53
2021/12/23 04:17:35;;;;;;;34.30;14.93;;;-0.10;99.90;;;;;;5036957;28;20022;-54
2021/12/23 04:20:15;;;;;;;34.20;14.35;;;-0.10;99.90;;;;;;5035845;28;20021;-58
2021/12/23 04:22:42;;;;;;;34.58;15.32;;;0.00;99.90;;;;;;5036948;28;20030;-54
2021/12/23 04:25:09;;;;;;;31.67;15.68;;;0.20;99.90;;;;;;5035838;28;20444;-56
2021/12/23 04:27:35;;;;;;;33.03;13.45;;;-0.10;99.90;;;;;;5037154;28;20112;-58
2021/12/23 04:30:00;;;;;;;37.83;15.13;;;-0.30;99.90;;;;;;5036762;28;20117;-54
2021/12/23 04:32:26;;;;;;;35.92;15.93;;;-0.60;99.90;;;;;;5035766;28;20056;-56
2021/12/23 04:34:51;;;;;;;36.17;14.60;;;-0.70;99.90;;;;;;5036740;28;20022;-55
2021/12/23 04:37:17;;;;;;;36.72;14.55;;;-0.70;99.90;;;;;;5035218;28;20021;-58
2021/12/23 04:39:43;;;;;;;36.50;15.25;;;-0.70;99.90;;;;;;5035384;28;20032;-56
2021/12/23 04:42:08;;;;;;;38.85;16.55;;;-0.70;99.90;;;;;;5035277;28;20025;-58
2021/12/23 04:44:34;;;;;;;38.42;15.60;;;-0.80;99.90;;;;;;5035240;28;20029;-58
2021/12/23 04:47:00;;;;;;;40.25;15.05;;;-0.90;99.90;;;;;;5035470;28;20029;-56
2021/12/23 04:49:25;;;;;;;45.47;15.25;;;-1.00;99.90;;;;;;5036308;28;20056;-56
2021/12/23 04:51:51;;;;;;;32.42;15.13;;;-1.00;99.90;;;;;;5035017;28;20033;-57
2021/12/23 04:54:16;;;;;;;49.47;16.73;;;-1.10;99.90;;;;;;5036423;28;20391;-56
2021/12/23 04:56:42;;;;;;;41.63;15.10;;;-1.00;99.90;;;;;;5035004;28;20428;-57
2021/12/23 04:59:08;;;;;;;40.78;14.90;;;-0.90;99.90;;;;;;5036225;28;20384;-58
2021/12/23 05:01:33;;;;;;;39.00;16.42;;;-1.00;99.90;;;;;;5034983;28;20025;-56
2021/12/23 05:04:00;;;;;;;46.25;16.60;;;-1.10;99.90;;;;;;5036128;28;20061;-58
2021/12/23 05:06:26;;;;;;;32.55;14.18;;;-1.00;99.90;;;;;;5036056;28;20029;-55
2021/12/23 05:08:52;;;;;;;36.08;15.20;;;-0.90;99.90;;;;;;5035192;28;20029;-57
2021/12/23 05:11:18;;;;;;;35.50;15.27;;;-0.80;99.90;;;;;;5034653;28;20040;-57
2021/12/23 05:13:47;;;;;;;33.70;14.18;;;-0.70;99.90;;;;;;5034703;28;20064;-56
2021/12/23 05:16:14;;;;;;;35.10;15.18;;;-0.60;99.90;;;;;;5035928;28;20017;-54
2021/12/23 05:18:40;;;;;;;39.97;15.45;;;-0.60;99.90;;;;;;5034669;28;20021;-58
2021/12/23 05:21:06;;;;;;;35.65;15.48;;;-0.60;99.90;;;;;;5036110;28;20116;-58
2021/12/23 05:23:32;;;;;;;42.00;14.85;;;-0.50;99.90;;;;;;5035835;28;20025;-58
2021/12/23 05:25:58;;;;;;;43.55;16.55;;;-0.50;99.90;;;;;;5034423;28;20029;-58
2021/12/23 05:28:24;;;;;;;44.97;16.85;;;-0.50;99.90;;;;;;5035719;28;20029;-55
2021/12/23 05:30:49;;;;;;;50.03;16.35;;;-0.60;99.90;;;;;;5034303;28;20018;-58
2021/12/23 05:33:15;;;;;;;39.08;15.70;;;-0.50;99.90;;;;;;5035884;28;20538;-58
2021/12/23 05:35:41;;;;;;;41.25;16.35;;;-0.60;99.90;;;;;;5035507;28;20088;-57
2021/12/23 05:38:07;;;;;;;41.50;17.15;;;-0.70;99.90;;;;;;5035451;28;20026;-54
2021/12/23 05:40:34;;;;;;;45.85;16.58;;;-0.60;99.90;;;;;;5035455;28;20079;-58
2021/12/23 05:43:00;;;;;;;46.67;16.98;;;-0.50;99.90;;;;;;5034494;28;20029;-57
2021/12/23 05:45:25;;;;;;;39.85;15.82;;;-0.30;99.90;;;;;;5034896;28;20071;-56
2021/12/23 05:47:51;;;;;;;37.65;15.80;;;-0.30;99.90;;;;;;5034988;28;20027;-55
2021/12/23 05:50:19;;;;;;;38.20;15.77;;;-0.40;99.90;;;;;;5035708;28;20087;-58
2021/12/23 05:52:45;;;;;;;41.13;15.52;;;-0.40;99.90;;;;;;5035254;28;20032;-55
2021/12/23 05:55:13;;;;;;;36.25;15.50;;;-0.40;99.90;;;;;;5035061;28;20025;-56
2021/12/23 05:57:39;;;;;;;39.22;16.05;;;-0.60;99.90;;;;;;5035302;28;20030;-58
2021/12/23 06:00:10;;;;;;;36.92;15.02;;;-0.50;99.90;;;;;;5033831;28;20045;-55
2021/12/23 06:02:36;;;;;;;37.75;16.17;;;-0.30;99.90;;;;;;5035067;28;20033;-57
2021/12/23 06:05:02;;;;;;;37.63;15.40;;;-0.30;99.90;;;;;;5034823;28;20045;-58
2021/12/23 06:07:28;;;;;;;38.75;14.93;;;-0.40;99.90;;;;;;5033739;28;20025;-55
2021/12/23 06:09:54;;;;;;;36.42;15.85;;;-0.40;99.90;;;;;;5034827;28;20025;-55
2021/12/23 06:12:19;;;;;;;38.95;16.48;;;-0.50;99.90;;;;;;5035110;28;20026;-58
2021/12/23 06:14:47;;;;;;;42.33;16.52;;;-0.40;99.90;;;;;;5034837;28;20014;-58
2021/12/23 06:17:12;;;;;;;41.70;16.45;;;-0.80;99.90;;;;;;5034802;28;20017;-57
2021/12/23 06:19:38;;;;;;;45.40;17.30;;;-1.10;99.90;;;;;;5034775;28;20556;-58
2021/12/23 06:22:04;;;;;;;41.63;17.15;;;-1.10;99.90;;;;;;5035065;28;20104;-56
2021/12/23 06:24:31;;;;;;;45.97;17.35;;;-1.10;99.90;;;;;;5034753;28;20067;-56
2021/12/23 06:26:57;;;;;;;42.83;15.70;;;-1.10;99.90;;;;;;5034724;28;20036;-56
2021/12/23 06:29:23;;;;;;;41.38;17.02;;;-1.00;99.90;;;;;;5034412;28;20021;-57
2021/12/23 06:31:48;;;;;;;37.70;16.15;;;-1.00;99.90;;;;;;5034465;28;20018;-58
2021/12/23 06:34:14;;;;;;;39.75;15.45;;;-0.70;99.90;;;;;;5033130;28;20059;-55
2021/12/23 06:36:41;;;;;;;37.85;15.27;;;-0.50;99.90;;;;;;5032548;28;20057;-58
2021/12/23 06:39:07;;;;;;;46.78;16.58;;;-0.50;99.90;;;;;;5033642;28;20021;-58
2021/12/23 06:41:32;;;;;;;43.80;17.67;;;-0.50;99.90;;;;;;5034533;28;20029;-58
2021/12/23 06:43:58;;;;;;;53.38;17.65;;;-0.70;99.90;;;;;;5034444;28;20032;-58
2021/12/23 06:46:24;;;;;;;51.22;18.92;;;-0.90;99.90;;;;;;5033179;28;20427;-54
2021/12/23 06:48:49;;;;;;;48.72;19.02;;;-1.20;99.90;;;;;;5034413;28;20029;-55
2021/12/23 06:51:15;;;;;;;46.88;17.05;;;-1.30;99.90;;;;;;5032922;28;20128;-58
2021/12/23 06:53:41;;;;;;;46.22;17.25;;;-1.10;99.90;;;;;;5033146;28;20025;-56
2021/12/23 06:56:06;;;;;;;44.53;17.40;;;-1.00;99.90;;;;;;5031449;28;20025;-58
2021/12/23 06:58:33;;;;;;;51.58;18.40;;;-1.10;99.90;;;;;;5033047;28;20026;-57
2021/12/23 07:00:59;;;;;;;45.05;17.23;;;-1.10;99.90;;;;;;5033913;28;20105;-57
2021/12/23 07:03:33;;;;;;;40.75;16.58;;;-1.10;99.90;;;;;;5032934;28;20091;-55
2021/12/23 07:06:05;;;;;;;51.22;18.27;;;-1.00;99.90;;;;;;5032724;28;20029;-58
2021/12/23 07:08:34;;;;;;;43.60;17.40;;;-1.00;99.90;;;;;;5033918;28;20036;-57
2021/12/23 07:11:18;;;;;;;44.42;17.20;;;-1.10;99.90;;;;;;5033372;28;20048;-58
2021/12/23 07:13:44;;;;;;;41.55;16.52;;;-1.00;99.90;;;;;;5034136;28;20053;-56
2021/12/23 07:16:09;;;;;;;46.75;18.98;;;-1.00;99.90;;;;;;5033544;28;20021;-56
2021/12/23 07:18:35;;;;;;;50.50;17.10;;;-1.20;99.90;;;;;;5032359;28;20078;-55
2021/12/23 07:21:01;;;;;;;44.08;17.48;;;-1.30;99.90;;;;;;5032342;28;20074;-56
2021/12/23 07:23:26;;;;;;;45.60;18.35;;;-1.40;99.90;;;;;;5032393;28;20029;-56
2021/12/23 07:25:52;;;;;;;49.03;17.73;;;-1.30;99.90;;;;;;5033514;28;20032;-58
2021/12/23 07:28:18;;;;;;;53.40;20.17;;;-1.30;99.90;;;;;;5032684;28;20025;-54
2021/12/23 07:30:43;;;;;;;45.67;17.75;;;-1.50;99.90;;;;;;5033410;28;20034;-58
2021/12/23 07:33:09;;;;;;;54.00;18.83;;;-1.30;99.90;;;;;;5032128;28;20030;-57
2021/12/23 07:35:34;;;;;;;50.95;19.60;;;-1.30;99.90;;;;;;5032107;28;20021;-58
2021/12/23 07:38:02;;;;;;;46.97;17.40;;;-1.20;99.90;;;;;;5032138;28;20023;-56
2021/12/23 07:40:28;;;;;;;46.90;18.52;;;-1.20;99.90;;;;;;5032134;28;20025;-56
2021/12/23 07:42:56;;;;;;;53.00;19.08;;;-1.10;99.90;;;;;;5033366;28;20025;-56
2021/12/23 07:45:25;;;;;;;48.80;17.67;;;-1.20;99.90;;;;;;5033248;28;20021;-57
2021/12/23 07:47:51;;;;;;;52.33;18.85;;;-1.40;99.90;;;;;;5032133;28;20395;-55
2021/12/23 07:50:17;;;;;;;47.95;17.70;;;-1.20;99.90;;;;;;5031940;28;20037;-57
2021/12/23 07:52:43;;;;;;;47.60;18.05;;;-1.10;99.90;;;;;;5033298;28;20018;-57
2021/12/23 07:55:09;;;;;;;46.80;18.92;;;-1.10;99.90;;;;;;5033190;28;20025;-57
2021/12/23 07:57:35;;;;;;;46.97;18.70;;;-1.10;99.90;;;;;;5031954;28;20025;-57
2021/12/23 08:00:01;;;;;;;45.75;18.63;;;-1.10;99.90;;;;;;5033421;28;20032;-52
2021/12/23 08:02:26;;;;;;;47.35;19.60;;;-1.00;99.90;;;;;;5031880;28;20030;-56
2021/12/23 08:04:52;;;;;;;56.80;19.35;;;-1.20;99.90;;;;;;5033363;28;20156;-57
2021/12/23 08:07:18;;;;;;;48.78;19.77;;;-1.30;99.90;;;;;;5032971;28;20071;-53
2021/12/23 08:09:43;;;;;;;43.65;18.00;;;-1.40;99.90;;;;;;5032932;28;20056;-57
2021/12/23 08:12:10;;;;;;;39.90;16.77;;;-1.30;99.90;;;;;;5031835;28;20026;-57
2021/12/23 08:14:35;;;;;;;49.17;18.25;;;-1.30;99.90;;;;;;5031834;28;20025;-53
2021/12/23 08:17:01;;;;;;;49.97;18.77;;;-1.20;99.90;;;;;;5031750;28;20021;-53
2021/12/23 08:19:27;;;;;;;44.30;16.83;;;-1.20;99.90;;;;;;5031686;28;20021;-57
2021/12/23 08:21:52;;;;;;;55.83;19.23;;;-1.00;99.90;;;;;;5031735;28;20068;-57
2021/12/23 08:24:18;;;;;;;43.83;16.77;;;-0.80;99.90;;;;;;5032970;28;20105;-54
2021/12/23 08:26:51;;;;;;;47.40;18.80;;;-0.80;99.90;;;;;;5032776;28;20022;-58
2021/12/23 08:29:18;;;;;;;53.47;20.10;;;-0.80;99.90;;;;;;5033259;28;20108;-56
2021/12/23 08:31:52;;;;;;;47.88;19.77;;;-0.90;99.90;;;;;;5032341;28;20022;-56
2021/12/23 08:34:22;;;;;;;53.60;20.05;;;-0.90;99.90;;;;;;5033214;28;20071;-57
2021/12/23 08:36:48;;;;;;;55.92;21.52;;;-0.70;99.90;;;;;;5032744;28;20029;-56
2021/12/23 08:39:15;;;;;;;56.00;20.50;;;-0.90;99.90;;;;;;5032830;28;20018;-56
2021/12/23 08:41:41;;;;;;;54.75;18.73;;;-0.90;99.90;;;;;;5033089;28;20052;-55
2021/12/23 08:44:07;;;;;;;53.60;19.75;;;-0.70;99.90;;;;;;5033056;28;20033;-57
2021/12/23 08:46:32;;;;;;;52.17;20.27;;;-0.80;99.90;;;;;;5031493;28;20047;-58
2021/12/23 08:48:58;;;;;;;53.75;19.23;;;-0.70;99.90;;;;;;5031481;28;20022;-55
2021/12/23 08:51:24;;;;;;;57.38;20.85;;;-0.60;99.90;;;;;;5032579;28;20025;-53
2021/12/23 08:53:50;;;;;;;50.05;18.75;;;-0.70;99.90;;;;;;5031739;28;20018;-55
2021/12/23 08:56:16;;;;;;;57.70;22.90;;;-0.70;99.90;;;;;;5032621;28;20088;-57
2021/12/23 08:58:42;;;;;;;54.17;20.80;;;-0.70;99.90;;;;;;5032641;28;20542;-55
2021/12/23 09:01:08;;;;;;;56.25;19.95;;;-0.60;99.90;;;;;;5034697;28;20053;-58
2021/12/23 09:03:35;;;;;;;53.60;20.05;;;-0.40;99.90;;;;;;5035174;28;20120;-56
2021/12/23 09:06:03;;;;;;;54.50;20.52;;;-0.30;99.90;;;;;;5026631;28;20026;-58
2021/12/23 09:08:28;;;;;;;50.03;19.08;;;-0.20;99.90;;;;;;5015014;28;20116;-57
2021/12/23 09:10:55;;;;;;;48.13;19.38;;;0.00;99.90;;;;;;5018699;28;20091;-58
2021/12/23 09:13:22;;;;;;;48.15;17.70;;;0.20;99.90;;;;;;5035951;28;20025;-58
2021/12/23 09:15:48;;;;;;;48.83;19.13;;;0.30;99.90;;;;;;5035771;28;20052;-54
2021/12/23 09:18:13;;;;;;;55.55;20.60;;;0.30;99.90;;;;;;5034585;28;20025;-57
2021/12/23 09:20:48;;;;;;;49.97;19.35;;;0.40;99.90;;;;;;5034643;28;20025;-57
2021/12/23 09:23:14;;;;;;;52.42;19.83;;;0.50;99.90;;;;;;5034693;28;20026;-57
2021/12/23 09:25:41;;;;;;;49.05;19.30;;;0.80;99.90;;;;;;5034480;28;20021;-59
2021/12/23 09:33:26;;;;;;;49.75;19.65;;;0.80;99.90;;;;;;5025505;28;20093;-55
2021/12/23 09:35:53;;;;;;;51.60;20.27;;;0.90;99.90;;;;;;5015799;28;20022;-58
2021/12/23 09:38:26;;;;;;;51.33;20.20;;;1.00;99.90;;;;;;5014988;28;20026;-56
2021/12/23 09:40:56;;;;;;;41.72;18.55;;;0.80;99.90;;;;;;5015707;28;20045;-57
2021/12/23 09:43:26;;;;;;;51.63;18.23;;;0.70;99.90;;;;;;5015677;28;20026;-56
2021/12/23 09:45:52;;;;;;;58.88;21.38;;;0.90;99.90;;;;;;5014907;28;20034;-55
2021/12/23 09:48:21;;;;;;;54.10;20.25;;;0.70;99.90;;;;;;5014243;28;20030;-54
2021/12/23 09:50:49;;;;;;;58.15;21.75;;;0.60;99.90;;;;;;5015265;28;20034;-51
2021/12/23 09:53:18;;;;;;;59.35;21.48;;;0.70;99.90;;;;;;5015784;28;20026;-55
2021/12/23 09:55:44;;;;;;;49.55;19.88;;;0.50;99.90;;;;;;5015665;28;20018;-54
2021/12/23 09:58:10;;;;;;;60.95;22.75;;;0.40;99.90;;;;;;5015630;28;20026;-55
2021/12/23 10:00:38;;;;;;;58.38;21.05;;;0.30;99.90;;;;;;5015228;28;20033;-53
2021/12/23 10:03:06;;;;;;;60.38;20.85;;;0.20;99.90;;;;;;5015209;28;20026;-56
2021/12/23 10:05:34;;;;;;;66.32;23.63;;;0.30;99.90;;;;;;5014950;28;20029;-54
2021/12/23 10:08:02;;;;;;;59.80;22.65;;;0.40;99.90;;;;;;5015050;28;20049;-56
2021/12/23 10:38:24;;;;;;;57.80;21.73;;;0.30;99.90;;;;;;5014877;28;20053;-58
2021/12/23 10:41:27;;;;;;;53.72;21.63;;;0.40;99.90;;;;;;5030292;28;20088;-56
2021/12/23 10:43:59;;;;;;;50.95;20.15;;;0.80;99.90;;;;;;4953963;29;20046;-57
2021/12/23 10:46:37;;;;;;;55.55;19.90;;;0.80;99.90;;;;;;5016889;28;20552;-54
2021/12/23 10:52:01;;;;;;;55.47;21.58;;;0.80;99.90;;;;;;5014204;28;20025;-52
2021/12/23 11:00:29;;;;;;;54.67;20.60;;;1.00;99.90;;;;;;5014609;28;20077;-53
2021/12/23 11:03:38;;;;;;;52.92;21.13;;;1.10;99.90;;;;;;5014559;28;20021;-54
2021/12/23 11:06:29;;;;;;;49.88;17.92;;;1.30;99.90;;;;;;5014069;28;20076;-55
2021/12/23 11:39:35;;;;;;;58.92;23.80;;;0.70;99.90;;;;;;5014108;28;20026;-51
2021/12/23 11:42:17;;;;;;;54.92;21.85;;;0.40;99.90;;;;;;5013690;28;20022;-58
2021/12/23 11:44:43;;;;;;;55.92;21.67;;;0.90;99.90;;;;;;5012391;28;20044;-57
2021/12/23 11:47:13;;;;;;;53.00;20.85;;;1.00;99.90;;;;;;5012611;28;20028;-55
2021/12/23 11:49:41;;;;;;;56.03;21.23;;;1.00;99.90;;;;;;5013524;28;20014;-58
2021/12/23 11:52:07;;;;;;;59.28;22.55;;;1.40;99.90;;;;;;5014251;28;20050;-58
2021/12/23 11:54:37;;;;;;;54.83;19.92;;;1.50;99.90;;;;;;5014050;28;20018;-58
2021/12/23 11:57:10;;;;;;;52.60;22.08;;;1.80;99.90;;;;;;5012494;28;20018;-57
2021/12/23 11:59:40;;;;;;;51.25;19.88;;;1.90;99.90;;;;;;5012602;28;20046;-57
2021/12/23 12:02:18;;;;;;;58.28;21.50;;;1.90;99.90;;;;;;5013494;28;20024;-56
2021/12/23 12:04:45;;;;;;;46.55;18.85;;;2.20;99.90;;;;;;5013735;28;20029;-56
2021/12/23 12:07:20;;;;;;;53.35;21.25;;;2.20;99.90;;;;;;5012075;28;20033;-57
2021/12/23 12:09:58;;;;;;;53.42;21.17;;;2.30;99.90;;;;;;5012531;28;20072;-57
2021/12/23 12:12:24;;;;;;;55.78;21.67;;;2.20;99.90;;;;;;5012094;28;20029;-54
2021/12/23 12:14:55;;;;;;;61.05;23.92;;;2.00;99.90;;;;;;5012088;28;20025;-53
2021/12/23 12:17:27;;;;;;;57.50;22.48;;;1.70;99.90;;;;;;5013235;28;20109;-56
2021/12/23 12:20:03;;;;;;;63.40;21.95;;;1.50;99.90;;;;;;5012040;28;20026;-54
2021/12/23 12:22:49;;;;;;;58.63;22.45;;;1.50;99.90;;;;;;5013265;28;20073;-57
2021/12/23 12:25:24;;;;;;;63.15;22.23;;;1.60;99.90;;;;;;5013111;28;20022;-56
2021/12/23 12:28:15;;;;;;;58.97;21.83;;;1.40;99.90;;;;;;5013475;28;20041;-54
2021/12/23 12:30:45;;;;;;;59.85;21.83;;;1.40;99.90;;;;;;5002275;28;20109;-52
2021/12/23 12:33:12;;;;;;;54.53;20.92;;;1.20;99.90;;;;;;5013386;28;20021;-53
2021/12/23 12:35:39;;;;;;;53.30;21.65;;;1.30;99.90;;;;;;5014139;28;20026;-52
2021/12/23 12:38:20;;;;;;;58.80;21.98;;;1.10;99.90;;;;;;5016970;28;20021;-55
2021/12/23 12:41:02;;;;;;;56.85;21.80;;;1.30;99.90;;;;;;5017502;28;20022;-54
2021/12/23 12:44:46;;;;;;;57.30;22.48;;;1.60;99.90;;;;;;5016846;28;20021;-53
2021/12/23 12:46:41;;;;;;;57.67;21.35;;;1.50;99.90;;;;;;5011717;28;20042;-55
2021/12/23 12:49:31;;;;;;;56.50;20.65;;;1.50;99.90;;;;;;5016725;28;20022;-55
2021/12/23 12:52:13;;;;;;;46.33;19.63;;;1.80;99.90;;;;;;4986728;28;20042;-56
2021/12/23 12:54:50;;;;;;;54.08;20.35;;;2.10;99.90;;;;;;5015419;28;20172;-53
2021/12/23 12:57:18;;;;;;;62.92;22.50;;;2.30;99.90;;;;;;5016443;28;20034;-58
2021/12/23 12:59:46;;;;;;;62.58;22.10;;;2.20;99.90;;;;;;5016501;28;20026;-57
2021/12/23 13:02:19;;;;;;;57.03;22.25;;;2.10;99.90;;;;;;5015451;28;20109;-51
2021/12/23 13:04:52;;;;;;;52.45;21.35;;;1.70;99.90;;;;;;5015909;28;20026;-57
2021/12/23 13:07:36;;;;;;;56.92;22.23;;;2.10;99.90;;;;;;5016371;28;20030;-53
2021/12/23 13:10:08;;;;;;;59.05;22.90;;;2.10;99.90;;;;;;5016516;28;20101;-58
2021/12/23 13:12:54;;;;;;;54.20;21.20;;;2.00;99.90;;;;;;5015009;28;20022;-58
2021/12/23 13:15:30;;;;;;;58.58;22.50;;;1.90;99.90;;;;;;5015478;28;20026;-53
2021/12/23 13:18:00;;;;;;;60.00;23.70;;;1.70;99.90;;;;;;5016268;28;20022;-56
2021/12/23 13:20:43;;;;;;;62.20;24.98;;;1.80;99.90;;;;;;5014881;28;20056;-54
2021/12/23 13:23:15;;;;;;;51.80;21.00;;;1.90;99.90;;;;;;5015999;28;20026;-53
2021/12/23 13:25:58;;;;;;;57.33;21.90;;;1.70;99.90;;;;;;5015970;28;20022;-55
2021/12/23 13:28:46;;;;;;;58.30;22.98;;;1.60;99.90;;;;;;5016028;28;20025;-58
2021/12/23 13:31:23;;;;;;;51.08;20.48;;;1.70;99.90;;;;;;5016222;28;20033;-54
2021/12/23 13:33:55;;;;;;;60.03;23.63;;;1.70;99.90;;;;;;5016160;28;20021;-58
2021/12/23 13:36:28;;;;;;;57.65;22.55;;;1.60;99.90;;;;;;5015766;28;20079;-56
2021/12/23 13:38:59;;;;;;;61.47;22.52;;;1.90;99.90;;;;;;5015883;28;20049;-56
2021/12/23 13:41:32;;;;;;;57.45;24.38;;;2.00;99.90;;;;;;5016077;28;20116;-54
2021/12/23 13:44:22;;;;;;;62.22;23.45;;;1.60;99.90;;;;;;5016011;28;20117;-56
2021/12/23 13:47:08;;;;;;;58.60;20.27;;;1.40;99.90;;;;;;5015396;28;20033;-57
2021/12/23 13:49:36;;;;;;;63.03;21.90;;;1.60;99.90;;;;;;5015628;28;20036;-58
2021/12/23 13:52:08;;;;;;;58.58;21.05;;;1.90;99.90;;;;;;5014424;28;20022;-51
2021/12/23 13:54:36;;;;;;;58.22;20.45;;;2.30;99.90;;;;;;5015359;28;20041;-56
2021/12/23 13:57:07;;;;;;;59.47;22.65;;;2.40;99.90;;;;;;5014400;28;20022;-58
2021/12/23 13:59:33;;;;;;;58.20;23.13;;;2.30;99.90;;;;;;5015504;28;20018;-54